sensor_id;sensor_type;location;lat;lon;timestamp;pressure;altitude;pressure_sealevel;temperature;humidity
62011;BME280;47967;51.756;10.174;2022-09-21T04:00:29;100788.25;;;6.49;85.33
62011;BME280;47967;51.756;10.174;2022-09-21T04:04:31;100782.09;;;6.67;85.26
62011;BME280;47967;51.756;10.174;2022-09-21T04:08:34;100786.59;;;6.66;84.86
62011;BME280;47967;51.756;10.174;2022-09-21T04:12:36;100785.06;;;6.64;84.87
62011;BME280;47967;51.756;10.174;2022-09-21T04:16:40;100784.69;;;6.59;85.03
62011;BME280;47967;51.756;10.174;2022-09-21T04:20:43;100790.75;;;6.61;85.57
62011;BME280;47967;51.756;10.174;2022-09-21T04:24:45;100791.63;;;6.79;86.07
62011;BME280;47967;51.756;10.174;2022-09-21T04:28:48;100787.84;;;6.72;85.50
62011;BME280;47967;51.756;10.174;2022-09-21T04:32:52;100791.38;;;6.72;85.52
62011;BME280;47967;51.756;10.174;2022-09-21T04:36:54;100786.97;;;6.81;86.07
62011;BME280;47967;51.756;10.174;2022-09-21T04:40:57;100783.53;;;6.89;86.05
62011;BME280;47967;51.756;10.174;2022-09-21T04:45:00;100786.81;;;6.83;85.58
62011;BME280;47967;51.756;10.174;2022-09-21T04:49:04;100794.84;;;6.83;85.69
62011;BME280;47967;51.756;10.174;2022-09-21T04:53:06;100793.00;;;6.65;85.56
62011;BME280;47967;51.756;10.174;2022-09-21T04:57:09;100796.25;;;6.59;85.92
62011;BME280;47967;51.756;10.174;2022-09-21T05:01:12;100791.34;;;6.54;85.85
62011;BME280;47967;51.756;10.174;2022-09-21T05:05:16;100800.22;;;6.55;85.87
62011;BME280;47967;51.756;10.174;2022-09-21T05:09:18;100806.19;;;6.49;85.87
62011;BME280;47967;51.756;10.174;2022-09-21T05:13:41;100812.63;;;6.56;86.13
62011;BME280;47967;51.756;10.174;2022-09-21T05:17:43;100813.19;;;6.60;85.81
62011;BME280;47967;51.756;10.174;2022-09-21T05:21:48;100819.59;;;6.77;86.07
62011;BME280;47967;51.756;10.174;2022-09-21T05:25:50;100826.06;;;6.84;85.61
62011;BME280;47967;51.756;10.174;2022-09-21T05:29:53;100825.56;;;6.98;85.37
62011;BME280;47967;51.756;10.174;2022-09-21T05:33:58;100827.16;;;7.09;84.62
62011;BME280;47967;51.756;10.174;2022-09-21T05:38:08;100832.34;;;7.20;84.63
62011;BME280;47967;51.756;10.174;2022-09-21T05:42:14;100828.78;;;7.20;84.60
62011;BME280;47967;51.756;10.174;2022-09-21T05:46:19;100839.16;;;7.33;84.13
62011;BME280;47967;51.756;10.174;2022-09-21T05:50:37;100844.31;;;7.44;84.29
62011;BME280;47967;51.756;10.174;2022-09-21T05:54:54;100843.94;;;7.57;83.87
62011;BME280;47967;51.756;10.174;2022-09-21T05:59:04;100842.63;;;7.61;83.35
62011;BME280;47967;51.756;10.174;2022-09-21T06:03:25;100842.16;;;7.48;82.84
62011;BME280;47967;51.756;10.174;2022-09-21T06:07:28;100851.63;;;7.52;82.90
62011;BME280;47967;51.756;10.174;2022-09-21T06:11:32;100852.97;;;7.74;83.36
62011;BME280;47967;51.756;10.174;2022-09-21T06:15:35;100853.09;;;7.91;83.84
62011;BME280;47967;51.756;10.174;2022-09-21T06:19:38;100860.16;;;7.92;83.42
62011;BME280;47967;51.756;10.174;2022-09-21T06:23:41;100859.31;;;8.09;83.40
62011;BME280;47967;51.756;10.174;2022-09-21T06:27:45;100853.22;;;8.25;83.46
62011;BME280;47967;51.756;10.174;2022-09-21T06:31:47;100855.28;;;8.40;83.15
62011;BME280;47967;51.756;10.174;2022-09-21T06:35:51;100851.84;;;8.47;82.65
62011;BME280;47967;51.756;10.174;2022-09-21T06:39:54;100859.84;;;8.65;81.96
62011;BME280;47967;51.756;10.174;2022-09-21T06:43:58;100856.41;;;8.81;81.57
62011;BME280;47967;51.756;10.174;2022-09-21T06:48:00;100856.75;;;8.87;80.94
62011;BME280;47967;51.756;10.174;2022-09-21T06:52:03;100856.06;;;8.85;80.03
62011;BME280;47967;51.756;10.174;2022-09-21T06:56:08;100853.19;;;8.78;79.26
62011;BME280;47967;51.756;10.174;2022-09-21T07:00:13;100862.09;;;8.78;79.91
62011;BME280;47967;51.756;10.174;2022-09-21T07:04:15;100867.75;;;8.67;79.65
62011;BME280;47967;51.756;10.174;2022-09-21T07:08:24;100873.44;;;8.56;79.89
62011;BME280;47967;51.756;10.174;2022-09-21T07:12:47;100865.38;;;8.99;79.91
62011;BME280;47967;51.756;10.174;2022-09-21T07:16:53;100873.97;;;9.10;79.28
62011;BME280;47967;51.756;10.174;2022-09-21T07:20:56;100874.16;;;9.09;79.14
62011;BME280;47967;51.756;10.174;2022-09-21T07:24:59;100873.88;;;9.28;78.75
62011;BME280;47967;51.756;10.174;2022-09-21T07:29:01;100876.97;;;9.50;77.36
62011;BME280;47967;51.756;10.174;2022-09-21T07:33:06;100873.78;;;9.71;77.02
62011;BME280;47967;51.756;10.174;2022-09-21T07:37:09;100884.41;;;9.89;77.19
62011;BME280;47967;51.756;10.174;2022-09-21T07:41:12;100884.25;;;10.07;76.01
62011;BME280;47967;51.756;10.174;2022-09-21T07:45:15;100886.91;;;10.32;75.16
62011;BME280;47967;51.756;10.174;2022-09-21T07:49:19;100899.91;;;10.20;75.22
62011;BME280;47967;51.756;10.174;2022-09-21T07:53:21;100897.53;;;10.34;75.46
62011;BME280;47967;51.756;10.174;2022-09-21T07:57:24;100892.47;;;10.47;74.77
62011;BME280;47967;51.756;10.174;2022-09-21T08:01:44;100898.66;;;10.72;74.41
62011;BME280;47967;51.756;10.174;2022-09-21T08:05:48;100897.44;;;10.92;74.29
62011;BME280;47967;51.756;10.174;2022-09-21T08:09:51;100889.25;;;11.08;73.50
62011;BME280;47967;51.756;10.174;2022-09-21T08:13:55;100893.84;;;11.39;72.56
62011;BME280;47967;51.756;10.174;2022-09-21T08:17:58;100895.09;;;11.28;71.71
62011;BME280;47967;51.756;10.174;2022-09-21T08:22:02;100897.81;;;11.51;72.09
62011;BME280;47967;51.756;10.174;2022-09-21T08:26:06;100894.63;;;12.03;71.02
62011;BME280;47967;51.756;10.174;2022-09-21T08:30:09;100892.44;;;12.21;70.13
62011;BME280;47967;51.756;10.174;2022-09-21T08:34:13;100894.69;;;12.32;70.02
62011;BME280;47967;51.756;10.174;2022-09-21T08:38:17;100894.97;;;12.38;69.57
62011;BME280;47967;51.756;10.174;2022-09-21T08:42:38;100897.06;;;12.51;69.69
62011;BME280;47967;51.756;10.174;2022-09-21T08:46:42;100891.88;;;12.26;69.95
62011;BME280;47967;51.756;10.174;2022-09-21T08:50:50;100891.63;;;12.51;70.30
62011;BME280;47967;51.756;10.174;2022-09-21T08:54:57;100893.31;;;12.81;69.49
62011;BME280;47967;51.756;10.174;2022-09-21T08:59:01;100897.81;;;13.04;69.06
62011;BME280;47967;51.756;10.174;2022-09-21T09:03:15;100893.09;;;13.43;67.90
62011;BME280;47967;51.756;10.174;2022-09-21T09:07:31;100900.66;;;13.48;67.42
62011;BME280;47967;51.756;10.174;2022-09-21T09:12:03;100899.81;;;13.47;68.20
62011;BME280;47967;51.756;10.174;2022-09-21T09:16:17;100891.34;;;13.20;69.43
62011;BME280;47967;51.756;10.174;2022-09-21T09:20:28;100884.56;;;13.46;69.05
62011;BME280;47967;51.756;10.174;2022-09-21T09:24:37;100893.91;;;14.02;67.34
62011;BME280;47967;51.756;10.174;2022-09-21T09:28:44;100881.69;;;13.91;67.92
62011;BME280;47967;51.756;10.174;2022-09-21T09:32:57;100891.75;;;13.97;67.84
62011;BME280;47967;51.756;10.174;2022-09-21T09:37:10;100884.53;;;14.04;66.85
62011;BME280;47967;51.756;10.174;2022-09-21T09:41:24;100893.22;;;14.21;67.57
62011;BME280;47967;51.756;10.174;2022-09-21T09:45:45;100884.75;;;14.31;67.71
62011;BME280;47967;51.756;10.174;2022-09-21T09:50:00;100895.59;;;14.31;67.10
62011;BME280;47967;51.756;10.174;2022-09-21T09:54:12;100878.13;;;14.40;67.37
62011;BME280;47967;51.756;10.174;2022-09-21T09:58:17;100884.84;;;14.45;68.01
62011;BME280;47967;51.756;10.174;2022-09-21T10:02:23;100885.84;;;15.00;66.32
62011;BME280;47967;51.756;10.174;2022-09-21T10:06:30;100882.56;;;15.25;65.87
62011;BME280;47967;51.756;10.174;2022-09-21T10:10:35;100886.56;;;15.29;65.06
62011;BME280;47967;51.756;10.174;2022-09-21T10:14:38;100884.31;;;15.46;64.60
62011;BME280;47967;51.756;10.174;2022-09-21T10:18:46;100877.25;;;15.59;64.48
62011;BME280;47967;51.756;10.174;2022-09-21T10:22:53;100871.84;;;15.79;64.72
62011;BME280;47967;51.756;10.174;2022-09-21T10:27:02;100876.50;;;15.92;64.77
62011;BME280;47967;51.756;10.174;2022-09-21T10:31:15;100875.03;;;16.23;64.11
62011;BME280;47967;51.756;10.174;2022-09-21T10:35:20;100868.13;;;16.20;63.56
62011;BME280;47967;51.756;10.174;2022-09-21T10:39:26;100872.72;;;16.06;63.83
62011;BME280;47967;51.756;10.174;2022-09-21T10:43:33;100855.75;;;16.31;64.45
62011;BME280;47967;51.756;10.174;2022-09-21T10:47:45;100860.16;;;15.98;65.98
62011;BME280;47967;51.756;10.174;2022-09-21T10:51:50;100860.16;;;15.98;65.75
62011;BME280;47967;51.756;10.174;2022-09-21T10:55:58;100861.56;;;15.74;66.41
62011;BME280;47967;51.756;10.174;2022-09-21T11:00:32;100851.31;;;15.63;67.33
62011;BME280;47967;51.756;10.174;2022-09-21T11:04:40;100849.19;;;15.51;68.94
62011;BME280;47967;51.756;10.174;2022-09-21T11:08:50;100840.75;;;15.33;69.48
62011;BME280;47967;51.756;10.174;2022-09-21T11:13:01;100836.84;;;15.56;69.53
62011;BME280;47967;51.756;10.174;2022-09-21T11:17:12;100835.88;;;15.83;69.39
62011;BME280;47967;51.756;10.174;2022-09-21T11:21:25;100832.13;;;15.98;69.36
62011;BME280;47967;51.756;10.174;2022-09-21T11:25:37;100828.09;;;16.21;68.41
62011;BME280;47967;51.756;10.174;2022-09-21T11:29:52;100822.41;;;16.49;68.71
62011;BME280;47967;51.756;10.174;2022-09-21T11:34:10;100821.56;;;16.55;67.92
62011;BME280;47967;51.756;10.174;2022-09-21T11:38:21;100815.34;;;16.87;63.67
62011;BME280;47967;51.756;10.174;2022-09-21T11:42:45;100803.75;;;17.11;64.26
62011;BME280;47967;51.756;10.174;2022-09-21T11:46:58;100798.88;;;17.52;60.81
62011;BME280;47967;51.756;10.174;2022-09-21T11:51:14;100803.00;;;17.87;59.36
62011;BME280;47967;51.756;10.174;2022-09-21T11:56:01;100798.22;;;17.57;56.66
62011;BME280;47967;51.756;10.174;2022-09-21T12:00:13;100802.75;;;17.95;57.00
62011;BME280;47967;51.756;10.174;2022-09-21T12:04:38;100792.44;;;18.22;56.69
62011;BME280;47967;51.756;10.174;2022-09-21T12:08:54;100786.13;;;18.96;54.11
62011;BME280;47967;51.756;10.174;2022-09-21T12:13:02;100782.78;;;19.25;54.02
62011;BME280;47967;51.756;10.174;2022-09-21T12:17:14;100776.59;;;19.60;51.87
62011;BME280;47967;51.756;10.174;2022-09-21T12:21:21;100792.22;;;19.41;52.59
62011;BME280;47967;51.756;10.174;2022-09-21T12:25:27;100782.75;;;19.43;52.01
62011;BME280;47967;51.756;10.174;2022-09-21T12:29:34;100779.44;;;19.53;49.65
62011;BME280;47967;51.756;10.174;2022-09-21T12:33:44;100775.28;;;19.62;51.68
62011;BME280;47967;51.756;10.174;2022-09-21T12:37:51;100777.34;;;20.03;48.27
62011;BME280;47967;51.756;10.174;2022-09-21T12:41:59;100772.59;;;19.98;49.18
62011;BME280;47967;51.756;10.174;2022-09-21T12:46:08;100773.31;;;19.93;47.79
62011;BME280;47967;51.756;10.174;2022-09-21T12:50:19;100769.47;;;19.71;47.33
62011;BME280;47967;51.756;10.174;2022-09-21T12:54:30;100763.81;;;18.99;48.66
62011;BME280;47967;51.756;10.174;2022-09-21T12:58:44;100766.19;;;19.08;49.68
62011;BME280;47967;51.756;10.174;2022-09-21T13:02:54;100758.91;;;18.34;49.63
62011;BME280;47967;51.756;10.174;2022-09-21T13:11:48;100760.13;;;18.87;48.04
62011;BME280;47967;51.756;10.174;2022-09-21T13:15:53;100757.69;;;18.48;49.30
62011;BME280;47967;51.756;10.174;2022-09-21T13:19:58;100744.66;;;18.81;48.01
62011;BME280;47967;51.756;10.174;2022-09-21T13:24:05;100750.78;;;18.64;47.77
62011;BME280;47967;51.756;10.174;2022-09-21T13:28:19;100741.47;;;18.84;48.02
62011;BME280;47967;51.756;10.174;2022-09-21T13:32:51;100748.03;;;19.13;47.37
62011;BME280;47967;51.756;10.174;2022-09-21T13:37:25;100751.38;;;19.27;46.39
62011;BME280;47967;51.756;10.174;2022-09-21T13:41:28;100739.06;;;19.36;45.92
62011;BME280;47967;51.756;10.174;2022-09-21T13:45:55;100743.97;;;19.58;46.89
62011;BME280;47967;51.756;10.174;2022-09-21T13:50:09;100740.94;;;19.24;46.33
62011;BME280;47967;51.756;10.174;2022-09-21T13:54:13;100730.28;;;19.58;45.42
62011;BME280;47967;51.756;10.174;2022-09-21T13:58:19;100744.34;;;19.62;45.66
62011;BME280;47967;51.756;10.174;2022-09-21T14:02:28;100733.97;;;19.10;46.73
62011;BME280;47967;51.756;10.174;2022-09-21T14:06:41;100730.53;;;19.57;45.77
62011;BME280;47967;51.756;10.174;2022-09-21T14:10:49;100739.94;;;19.73;45.48
62011;BME280;47967;51.756;10.174;2022-09-21T14:15:09;100733.25;;;19.68;45.18
62011;BME280;47967;51.756;10.174;2022-09-21T14:24:19;100731.66;;;19.37;46.87
62011;BME280;47967;51.756;10.174;2022-09-21T14:28:31;100727.63;;;19.28;46.93
62011;BME280;47967;51.756;10.174;2022-09-21T14:32:41;100724.22;;;19.14;45.99
62011;BME280;47967;51.756;10.174;2022-09-21T14:36:49;100715.88;;;18.78;45.92
62011;BME280;47967;51.756;10.174;2022-09-21T14:40:57;100712.72;;;19.12;46.61
62011;BME280;47967;51.756;10.174;2022-09-21T14:45:01;100719.38;;;19.16;46.05
62011;BME280;47967;51.756;10.174;2022-09-21T14:49:15;100708.19;;;19.06;46.47
62011;BME280;47967;51.756;10.174;2022-09-21T14:53:50;100717.47;;;18.55;47.22
62011;BME280;47967;51.756;10.174;2022-09-21T14:58:10;100707.00;;;18.15;49.06
62011;BME280;47967;51.756;10.174;2022-09-21T15:02:20;100711.16;;;18.18;48.68
62011;BME280;47967;51.756;10.174;2022-09-21T15:06:27;100703.28;;;18.10;47.70
62011;BME280;47967;51.756;10.174;2022-09-21T15:10:54;100701.56;;;18.64;46.61
62011;BME280;47967;51.756;10.174;2022-09-21T15:15:14;100692.00;;;18.85;46.52
62011;BME280;47967;51.756;10.174;2022-09-21T15:19:22;100697.88;;;19.31;46.39
62011;BME280;47967;51.756;10.174;2022-09-21T15:23:26;100700.06;;;19.53;44.59
62011;BME280;47967;51.756;10.174;2022-09-21T15:27:30;100691.19;;;19.15;44.47
62011;BME280;47967;51.756;10.174;2022-09-21T15:31:37;100695.63;;;19.64;43.15
62011;BME280;47967;51.756;10.174;2022-09-21T15:35:44;100686.16;;;20.02;42.82
62011;BME280;47967;51.756;10.174;2022-09-21T15:39:58;100687.41;;;19.40;43.26
62011;BME280;47967;51.756;10.174;2022-09-21T15:44:04;100687.53;;;19.22;43.91
62011;BME280;47967;51.756;10.174;2022-09-21T15:48:09;100687.31;;;19.35;44.88
62011;BME280;47967;51.756;10.174;2022-09-21T15:52:20;100682.50;;;19.18;45.44
62011;BME280;47967;51.756;10.174;2022-09-21T15:56:25;100679.84;;;19.00;45.74
62011;BME280;47967;51.756;10.174;2022-09-21T16:00:31;100679.59;;;19.01;45.38
62011;BME280;47967;51.756;10.174;2022-09-21T16:04:45;100685.06;;;19.01;45.35
62011;BME280;47967;51.756;10.174;2022-09-21T16:08:50;100677.56;;;18.97;45.48
62011;BME280;47967;51.756;10.174;2022-09-21T16:12:59;100685.66;;;18.73;46.23
62011;BME280;47967;51.756;10.174;2022-09-21T16:17:19;100686.22;;;18.63;46.60
62011;BME280;47967;51.756;10.174;2022-09-21T16:21:25;100680.94;;;18.50;47.37
62011;BME280;47967;51.756;10.174;2022-09-21T16:25:31;100693.72;;;18.19;46.96
62011;BME280;47967;51.756;10.174;2022-09-21T16:29:39;100684.59;;;18.06;48.21
62011;BME280;47967;51.756;10.174;2022-09-21T16:33:59;100688.94;;;18.33;50.90
62011;BME280;47967;51.756;10.174;2022-09-21T16:38:03;100685.38;;;18.32;50.51
62011;BME280;47967;51.756;10.174;2022-09-21T16:42:10;100684.00;;;18.23;48.99
62011;BME280;47967;51.756;10.174;2022-09-21T16:46:13;100694.94;;;18.04;49.56
62011;BME280;47967;51.756;10.174;2022-09-21T16:50:16;100690.38;;;17.73;50.11
62011;BME280;47967;51.756;10.174;2022-09-21T16:54:20;100691.38;;;17.35;51.51
62011;BME280;47967;51.756;10.174;2022-09-21T16:58:24;100691.56;;;17.08;52.95
62011;BME280;47967;51.756;10.174;2022-09-21T17:02:27;100686.78;;;16.96;53.09
62011;BME280;47967;51.756;10.174;2022-09-21T17:06:31;100691.19;;;16.59;53.56
62011;BME280;47967;51.756;10.174;2022-09-21T17:10:40;100703.97;;;15.99;54.62
62011;BME280;47967;51.756;10.174;2022-09-21T17:14:45;100699.78;;;15.63;56.78
62011;BME280;47967;51.756;10.174;2022-09-21T17:18:48;100704.41;;;15.36;57.80
62011;BME280;47967;51.756;10.174;2022-09-21T17:22:50;100702.50;;;15.16;58.45
62011;BME280;47967;51.756;10.174;2022-09-21T17:26:54;100694.97;;;14.92;59.18
62011;BME280;47967;51.756;10.174;2022-09-21T17:30:57;100696.78;;;14.78;60.01
62011;BME280;47967;51.756;10.174;2022-09-21T17:35:13;100703.75;;;15.07;59.85
62011;BME280;47967;51.756;10.174;2022-09-21T17:39:16;100706.84;;;14.77;60.21
62011;BME280;47967;51.756;10.174;2022-09-21T17:43:34;100705.91;;;14.56;61.77
62011;BME280;47967;51.756;10.174;2022-09-21T17:47:39;100707.47;;;14.31;62.85
62011;BME280;47967;51.756;10.174;2022-09-21T17:51:42;100705.28;;;14.19;63.22
62011;BME280;47967;51.756;10.174;2022-09-21T17:56:20;100713.47;;;13.84;64.69
62011;BME280;47967;51.756;10.174;2022-09-21T18:00:38;100707.44;;;13.60;65.80
62011;BME280;47967;51.756;10.174;2022-09-21T18:04:43;100711.28;;;13.44;66.33
62011;BME280;47967;51.756;10.174;2022-09-21T18:08:46;100709.66;;;13.28;66.73
62011;BME280;47967;51.756;10.174;2022-09-21T18:13:14;100714.84;;;13.08;67.56
62011;BME280;47967;51.756;10.174;2022-09-21T18:17:39;100711.41;;;12.78;68.72
62011;BME280;47967;51.756;10.174;2022-09-21T18:21:47;100723.16;;;12.48;70.09
62011;BME280;47967;51.756;10.174;2022-09-21T18:25:54;100720.66;;;12.32;71.01
62011;BME280;47967;51.756;10.174;2022-09-21T18:29:57;100723.75;;;11.99;72.42
62011;BME280;47967;51.756;10.174;2022-09-21T18:34:12;100727.31;;;11.76;73.65
62011;BME280;47967;51.756;10.174;2022-09-21T18:38:24;100733.72;;;11.60;74.31
62011;BME280;47967;51.756;10.174;2022-09-21T18:42:38;100725.34;;;11.55;74.11
62011;BME280;47967;51.756;10.174;2022-09-21T18:46:51;100733.91;;;11.59;74.20
62011;BME280;47967;51.756;10.174;2022-09-21T18:50:58;100738.56;;;11.50;74.01
62011;BME280;47967;51.756;10.174;2022-09-21T18:55:13;100735.88;;;11.50;74.41
62011;BME280;47967;51.756;10.174;2022-09-21T18:59:19;100740.31;;;11.43;74.53
62011;BME280;47967;51.756;10.174;2022-09-21T19:03:22;100734.44;;;11.39;74.71
62011;BME280;47967;51.756;10.174;2022-09-21T19:07:28;100736.53;;;11.29;75.20
62011;BME280;47967;51.756;10.174;2022-09-21T19:11:42;100739.81;;;10.93;75.86
62011;BME280;47967;51.756;10.174;2022-09-21T19:15:54;100738.13;;;10.60;76.50
62011;BME280;47967;51.756;10.174;2022-09-21T19:20:17;100744.44;;;10.36;77.47
62011;BME280;47967;51.756;10.174;2022-09-21T19:24:30;100742.81;;;10.27;78.44
62011;BME280;47967;51.756;10.174;2022-09-21T19:28:55;100741.28;;;10.24;79.07
62011;BME280;47967;51.756;10.174;2022-09-21T19:33:20;100735.38;;;10.20;78.79
62011;BME280;47967;51.756;10.174;2022-09-21T19:37:46;100736.44;;;10.19;78.94
62011;BME280;47967;51.756;10.174;2022-09-21T19:42:00;100738.94;;;10.29;78.83
62011;BME280;47967;51.756;10.174;2022-09-21T19:46:15;100739.66;;;9.98;78.53
62011;BME280;47967;51.756;10.174;2022-09-21T19:50:22;100739.41;;;9.68;79.36
62011;BME280;47967;51.756;10.174;2022-09-21T19:54:26;100733.69;;;9.63;79.71
62011;BME280;47967;51.756;10.174;2022-09-21T19:58:48;100731.66;;;9.57;80.08
62011;BME280;47967;51.756;10.174;2022-09-21T20:03:12;100738.72;;;9.58;79.97
62011;BME280;47967;51.756;10.174;2022-09-21T20:07:23;100736.72;;;9.68;79.59
62011;BME280;47967;51.756;10.174;2022-09-21T20:11:34;100735.69;;;9.69;79.18
62011;BME280;47967;51.756;10.174;2022-09-21T20:15:45;100739.41;;;9.68;79.35
62011;BME280;47967;51.756;10.174;2022-09-21T20:19:51;100736.72;;;9.60;79.17
62011;BME280;47967;51.756;10.174;2022-09-21T20:23:59;100744.78;;;9.43;79.44
62011;BME280;47967;51.756;10.174;2022-09-21T20:28:03;100748.00;;;9.31;79.40
62011;BME280;47967;51.756;10.174;2022-09-21T20:32:08;100745.47;;;9.21;79.95
62011;BME280;47967;51.756;10.174;2022-09-21T20:36:10;100749.28;;;9.02;80.25
62011;BME280;47967;51.756;10.174;2022-09-21T20:40:14;100744.06;;;8.92;80.60
62011;BME280;47967;51.756;10.174;2022-09-21T20:44:17;100738.66;;;8.75;80.38
62011;BME280;47967;51.756;10.174;2022-09-21T20:48:20;100735.41;;;8.63;80.90
62011;BME280;47967;51.756;10.174;2022-09-21T20:52:23;100740.28;;;8.60;81.14
62011;BME280;47967;51.756;10.174;2022-09-21T20:56:26;100738.63;;;8.67;80.68
